sensor_id;sensor_type;location;lat;lon;timestamp;P1;durP1;ratioP1;P2;durP2;ratioP2
54167;SDS011;68429;50.958;3.592;2023-04-28T00:02:13;31.33;;;20.70;;
54167;SDS011;68429;50.958;3.592;2023-04-28T00:04:39;29.48;;;19.05;;
54167;SDS011;68429;50.958;3.592;2023-04-28T00:07:04;29.88;;;18.95;;
54167;SDS011;68429;50.958;3.592;2023-04-28T00:09:30;30.75;;;20.13;;
54167;SDS011;68429;50.958;3.592;2023-04-28T00:11:56;31.90;;;20.08;;
54167;SDS011;68429;50.958;3.592;2023-04-28T00:14:22;31.55;;;20.77;;
54167;SDS011;68429;50.958;3.592;2023-04-28T00:16:47;28.70;;;19.98;;
54167;SDS011;68429;50.958;3.592;2023-04-28T00:19:13;28.27;;;19.90;;
54167;SDS011;68429;50.958;3.592;2023-04-28T00:21:39;30.88;;;21.20;;
54167;SDS011;68429;50.958;3.592;2023-04-28T00:24:04;32.15;;;21.08;;
54167;SDS011;68429;50.958;3.592;2023-04-28T00:26:31;32.38;;;20.25;;
54167;SDS011;68429;50.958;3.592;2023-04-28T00:28:56;28.23;;;20.65;;
54167;SDS011;68429;50.958;3.592;2023-04-28T00:31:22;31.05;;;19.80;;
54167;SDS011;68429;50.958;3.592;2023-04-28T00:33:47;30.05;;;19.60;;
54167;SDS011;68429;50.958;3.592;2023-04-28T00:36:13;27.55;;;19.88;;
54167;SDS011;68429;50.958;3.592;2023-04-28T00:38:39;33.05;;;20.45;;
54167;SDS011;68429;50.958;3.592;2023-04-28T00:41:04;30.30;;;19.33;;
54167;SDS011;68429;50.958;3.592;2023-04-28T00:43:30;31.63;;;19.10;;
54167;SDS011;68429;50.958;3.592;2023-04-28T00:45:56;29.58;;;20.23;;
54167;SDS011;68429;50.958;3.592;2023-04-28T00:48:21;26.63;;;16.35;;
54167;SDS011;68429;50.958;3.592;2023-04-28T00:50:48;32.45;;;20.55;;
54167;SDS011;68429;50.958;3.592;2023-04-28T00:53:14;32.70;;;21.85;;
54167;SDS011;68429;50.958;3.592;2023-04-28T00:55:40;31.85;;;21.52;;
54167;SDS011;68429;50.958;3.592;2023-04-28T00:58:06;36.92;;;19.90;;
54167;SDS011;68429;50.958;3.592;2023-04-28T01:00:32;32.85;;;22.25;;
54167;SDS011;68429;50.958;3.592;2023-04-28T01:02:58;31.05;;;21.85;;
54167;SDS011;68429;50.958;3.592;2023-04-28T01:05:24;36.97;;;21.40;;
54167;SDS011;68429;50.958;3.592;2023-04-28T01:07:50;34.65;;;22.88;;
54167;SDS011;68429;50.958;3.592;2023-04-28T01:10:17;35.65;;;23.42;;
54167;SDS011;68429;50.958;3.592;2023-04-28T01:12:42;43.35;;;25.10;;
54167;SDS011;68429;50.958;3.592;2023-04-28T01:15:14;43.63;;;25.10;;
54167;SDS011;68429;50.958;3.592;2023-04-28T01:17:41;43.78;;;26.20;;
54167;SDS011;68429;50.958;3.592;2023-04-28T01:20:08;41.97;;;26.00;;
54167;SDS011;68429;50.958;3.592;2023-04-28T01:22:34;43.83;;;27.80;;
54167;SDS011;68429;50.958;3.592;2023-04-28T01:25:00;48.00;;;26.58;;
54167;SDS011;68429;50.958;3.592;2023-04-28T01:27:27;44.50;;;26.85;;
54167;SDS011;68429;50.958;3.592;2023-04-28T01:29:53;44.25;;;27.80;;
54167;SDS011;68429;50.958;3.592;2023-04-28T01:32:18;51.60;;;28.58;;
54167;SDS011;68429;50.958;3.592;2023-04-28T01:34:44;44.38;;;29.10;;
54167;SDS011;68429;50.958;3.592;2023-04-28T01:37:10;49.25;;;29.75;;
54167;SDS011;68429;50.958;3.592;2023-04-28T01:39:35;47.00;;;30.15;;
54167;SDS011;68429;50.958;3.592;2023-04-28T01:42:01;46.15;;;30.83;;
54167;SDS011;68429;50.958;3.592;2023-04-28T01:44:27;57.30;;;31.75;;
54167;SDS011;68429;50.958;3.592;2023-04-28T01:46:52;54.35;;;31.38;;
54167;SDS011;68429;50.958;3.592;2023-04-28T01:49:18;54.90;;;32.03;;
54167;SDS011;68429;50.958;3.592;2023-04-28T01:51:44;52.92;;;31.85;;
54167;SDS011;68429;50.958;3.592;2023-04-28T01:54:09;54.45;;;33.50;;
54167;SDS011;68429;50.958;3.592;2023-04-28T01:56:35;52.90;;;33.75;;
54167;SDS011;68429;50.958;3.592;2023-04-28T01:59:01;60.15;;;33.80;;
54167;SDS011;68429;50.958;3.592;2023-04-28T02:01:26;56.33;;;33.10;;
54167;SDS011;68429;50.958;3.592;2023-04-28T02:03:52;61.20;;;35.00;;
54167;SDS011;68429;50.958;3.592;2023-04-28T02:06:19;60.40;;;33.42;;
54167;SDS011;68429;50.958;3.592;2023-04-28T02:08:45;56.75;;;34.28;;
54167;SDS011;68429;50.958;3.592;2023-04-28T02:11:11;59.63;;;32.90;;
54167;SDS011;68429;50.958;3.592;2023-04-28T02:13:36;55.13;;;33.03;;
54167;SDS011;68429;50.958;3.592;2023-04-28T02:16:02;61.42;;;33.20;;
54167;SDS011;68429;50.958;3.592;2023-04-28T02:18:28;54.25;;;33.83;;
54167;SDS011;68429;50.958;3.592;2023-04-28T02:20:53;52.80;;;32.50;;
54167;SDS011;68429;50.958;3.592;2023-04-28T02:23:19;52.85;;;31.52;;
54167;SDS011;68429;50.958;3.592;2023-04-28T02:25:45;49.47;;;31.23;;
54167;SDS011;68429;50.958;3.592;2023-04-28T02:28:10;57.20;;;32.80;;
54167;SDS011;68429;50.958;3.592;2023-04-28T02:30:37;55.03;;;31.17;;
54167;SDS011;68429;50.958;3.592;2023-04-28T02:33:02;60.47;;;32.10;;
54167;SDS011;68429;50.958;3.592;2023-04-28T02:35:28;55.15;;;30.45;;
54167;SDS011;68429;50.958;3.592;2023-04-28T02:37:54;50.35;;;30.70;;
54167;SDS011;68429;50.958;3.592;2023-04-28T02:40:19;44.25;;;28.75;;
54167;SDS011;68429;50.958;3.592;2023-04-28T02:42:45;49.95;;;29.88;;
54167;SDS011;68429;50.958;3.592;2023-04-28T02:45:11;43.83;;;29.60;;
54167;SDS011;68429;50.958;3.592;2023-04-28T02:47:36;47.10;;;29.38;;
54167;SDS011;68429;50.958;3.592;2023-04-28T02:50:02;43.30;;;28.15;;
54167;SDS011;68429;50.958;3.592;2023-04-28T02:52:28;49.60;;;29.52;;
54167;SDS011;68429;50.958;3.592;2023-04-28T02:54:54;49.25;;;30.92;;
54167;SDS011;68429;50.958;3.592;2023-04-28T02:57:22;45.85;;;28.75;;
54167;SDS011;68429;50.958;3.592;2023-04-28T02:59:48;45.45;;;29.08;;
54167;SDS011;68429;50.958;3.592;2023-04-28T03:02:14;50.55;;;29.17;;
54167;SDS011;68429;50.958;3.592;2023-04-28T03:04:40;45.90;;;27.60;;
54167;SDS011;68429;50.958;3.592;2023-04-28T03:07:06;47.28;;;28.40;;
54167;SDS011;68429;50.958;3.592;2023-04-28T03:09:32;46.10;;;28.48;;
54167;SDS011;68429;50.958;3.592;2023-04-28T03:11:57;44.20;;;28.02;;
54167;SDS011;68429;50.958;3.592;2023-04-28T03:14:23;48.60;;;29.02;;
54167;SDS011;68429;50.958;3.592;2023-04-28T03:16:49;46.78;;;29.50;;
54167;SDS011;68429;50.958;3.592;2023-04-28T03:19:15;49.67;;;29.98;;
54167;SDS011;68429;50.958;3.592;2023-04-28T03:21:40;46.00;;;30.15;;
54167;SDS011;68429;50.958;3.592;2023-04-28T03:24:06;46.20;;;28.50;;
54167;SDS011;68429;50.958;3.592;2023-04-28T03:26:32;45.22;;;27.75;;
54167;SDS011;68429;50.958;3.592;2023-04-28T03:28:58;51.70;;;29.73;;
54167;SDS011;68429;50.958;3.592;2023-04-28T03:31:24;48.08;;;28.75;;
54167;SDS011;68429;50.958;3.592;2023-04-28T03:33:49;47.97;;;28.67;;
54167;SDS011;68429;50.958;3.592;2023-04-28T03:36:15;48.95;;;28.45;;
54167;SDS011;68429;50.958;3.592;2023-04-28T03:38:41;40.28;;;26.50;;
54167;SDS011;68429;50.958;3.592;2023-04-28T03:41:07;51.90;;;29.80;;
54167;SDS011;68429;50.958;3.592;2023-04-28T03:43:33;46.83;;;28.73;;
54167;SDS011;68429;50.958;3.592;2023-04-28T03:46:01;46.83;;;28.90;;
54167;SDS011;68429;50.958;3.592;2023-04-28T03:48:27;51.38;;;30.13;;
54167;SDS011;68429;50.958;3.592;2023-04-28T03:50:53;42.25;;;27.58;;
54167;SDS011;68429;50.958;3.592;2023-04-28T03:53:19;51.85;;;29.38;;
54167;SDS011;68429;50.958;3.592;2023-04-28T03:55:45;46.40;;;28.33;;
54167;SDS011;68429;50.958;3.592;2023-04-28T03:58:10;54.17;;;29.13;;
54167;SDS011;68429;50.958;3.592;2023-04-28T04:00:36;51.83;;;27.90;;
54167;SDS011;68429;50.958;3.592;2023-04-28T04:03:01;48.03;;;27.73;;
54167;SDS011;68429;50.958;3.592;2023-04-28T04:05:27;48.03;;;28.92;;
54167;SDS011;68429;50.958;3.592;2023-04-28T04:07:53;50.03;;;29.05;;
54167;SDS011;68429;50.958;3.592;2023-04-28T04:10:19;47.10;;;29.20;;
54167;SDS011;68429;50.958;3.592;2023-04-28T04:12:44;46.33;;;29.63;;
54167;SDS011;68429;50.958;3.592;2023-04-28T04:15:10;53.67;;;27.75;;
54167;SDS011;68429;50.958;3.592;2023-04-28T04:17:36;55.83;;;27.35;;
54167;SDS011;68429;50.958;3.592;2023-04-28T04:20:02;55.72;;;26.70;;
54167;SDS011;68429;50.958;3.592;2023-04-28T04:22:28;53.38;;;27.90;;
54167;SDS011;68429;50.958;3.592;2023-04-28T04:24:54;45.45;;;27.92;;
54167;SDS011;68429;50.958;3.592;2023-04-28T04:27:19;54.72;;;28.42;;
54167;SDS011;68429;50.958;3.592;2023-04-28T04:29:45;55.58;;;27.85;;
54167;SDS011;68429;50.958;3.592;2023-04-28T04:32:11;51.90;;;28.13;;
54167;SDS011;68429;50.958;3.592;2023-04-28T04:34:37;58.08;;;28.13;;
54167;SDS011;68429;50.958;3.592;2023-04-28T04:37:02;50.22;;;27.90;;
54167;SDS011;68429;50.958;3.592;2023-04-28T04:39:28;51.03;;;28.83;;
54167;SDS011;68429;50.958;3.592;2023-04-28T04:41:54;53.30;;;27.83;;
54167;SDS011;68429;50.958;3.592;2023-04-28T04:44:19;53.85;;;26.77;;
54167;SDS011;68429;50.958;3.592;2023-04-28T04:46:45;41.13;;;24.80;;
54167;SDS011;68429;50.958;3.592;2023-04-28T04:49:12;41.97;;;23.58;;
54167;SDS011;68429;50.958;3.592;2023-04-28T04:51:37;39.00;;;19.88;;
54167;SDS011;68429;50.958;3.592;2023-04-28T04:54:03;34.28;;;20.05;;
54167;SDS011;68429;50.958;3.592;2023-04-28T04:56:29;28.60;;;16.35;;
54167;SDS011;68429;50.958;3.592;2023-04-28T04:58:55;25.45;;;15.68;;
54167;SDS011;68429;50.958;3.592;2023-04-28T05:01:21;20.38;;;13.23;;
54167;SDS011;68429;50.958;3.592;2023-04-28T05:03:47;17.35;;;11.63;;
54167;SDS011;68429;50.958;3.592;2023-04-28T05:06:12;16.40;;;11.00;;
54167;SDS011;68429;50.958;3.592;2023-04-28T05:08:38;16.85;;;11.68;;
54167;SDS011;68429;50.958;3.592;2023-04-28T05:11:04;14.52;;;10.27;;
54167;SDS011;68429;50.958;3.592;2023-04-28T05:13:29;14.77;;;10.77;;
54167;SDS011;68429;50.958;3.592;2023-04-28T05:15:55;17.13;;;10.52;;
54167;SDS011;68429;50.958;3.592;2023-04-28T05:18:21;13.48;;;9.75;;
54167;SDS011;68429;50.958;3.592;2023-04-28T05:20:46;11.57;;;9.15;;
54167;SDS011;68429;50.958;3.592;2023-04-28T05:23:12;14.00;;;9.18;;
54167;SDS011;68429;50.958;3.592;2023-04-28T05:25:38;12.85;;;10.23;;
54167;SDS011;68429;50.958;3.592;2023-04-28T05:28:04;11.98;;;9.23;;
54167;SDS011;68429;50.958;3.592;2023-04-28T05:30:32;12.68;;;9.40;;
54167;SDS011;68429;50.958;3.592;2023-04-28T05:32:58;12.68;;;9.38;;
54167;SDS011;68429;50.958;3.592;2023-04-28T05:35:24;9.98;;;8.38;;
54167;SDS011;68429;50.958;3.592;2023-04-28T05:37:50;11.82;;;8.85;;
54167;SDS011;68429;50.958;3.592;2023-04-28T05:40:16;10.55;;;8.57;;
54167;SDS011;68429;50.958;3.592;2023-04-28T05:42:42;14.38;;;9.10;;
54167;SDS011;68429;50.958;3.592;2023-04-28T05:45:08;11.38;;;9.20;;
54167;SDS011;68429;50.958;3.592;2023-04-28T05:47:34;10.93;;;8.82;;
54167;SDS011;68429;50.958;3.592;2023-04-28T05:50:00;13.75;;;9.40;;
54167;SDS011;68429;50.958;3.592;2023-04-28T05:52:26;10.68;;;8.77;;
54167;SDS011;68429;50.958;3.592;2023-04-28T05:54:52;11.18;;;9.07;;
54167;SDS011;68429;50.958;3.592;2023-04-28T05:57:17;11.38;;;9.02;;
54167;SDS011;68429;50.958;3.592;2023-04-28T05:59:43;11.95;;;9.23;;
54167;SDS011;68429;50.958;3.592;2023-04-28T06:02:09;9.57;;;8.25;;
54167;SDS011;68429;50.958;3.592;2023-04-28T06:04:35;10.05;;;8.57;;
54167;SDS011;68429;50.958;3.592;2023-04-28T06:07:02;11.98;;;8.48;;
54167;SDS011;68429;50.958;3.592;2023-04-28T06:09:27;8.95;;;7.55;;
54167;SDS011;68429;50.958;3.592;2023-04-28T06:11:53;10.00;;;7.45;;
54167;SDS011;68429;50.958;3.592;2023-04-28T06:14:19;9.23;;;7.47;;
54167;SDS011;68429;50.958;3.592;2023-04-28T06:16:46;8.18;;;6.78;;
54167;SDS011;68429;50.958;3.592;2023-04-28T06:19:12;8.38;;;7.05;;
54167;SDS011;68429;50.958;3.592;2023-04-28T06:21:39;7.18;;;6.45;;
54167;SDS011;68429;50.958;3.592;2023-04-28T06:24:05;6.40;;;5.80;;
54167;SDS011;68429;50.958;3.592;2023-04-28T06:26:31;7.00;;;6.13;;
54167;SDS011;68429;50.958;3.592;2023-04-28T06:28:56;7.25;;;6.20;;
54167;SDS011;68429;50.958;3.592;2023-04-28T06:31:22;9.52;;;6.15;;
54167;SDS011;68429;50.958;3.592;2023-04-28T06:33:47;9.63;;;6.90;;
54167;SDS011;68429;50.958;3.592;2023-04-28T06:36:13;8.38;;;7.03;;
54167;SDS011;68429;50.958;3.592;2023-04-28T06:38:41;9.85;;;6.55;;
54167;SDS011;68429;50.958;3.592;2023-04-28T06:41:08;6.50;;;5.90;;
54167;SDS011;68429;50.958;3.592;2023-04-28T06:43:35;6.32;;;5.70;;
54167;SDS011;68429;50.958;3.592;2023-04-28T06:46:01;6.13;;;5.50;;
54167;SDS011;68429;50.958;3.592;2023-04-28T06:48:27;5.82;;;5.28;;
54167;SDS011;68429;50.958;3.592;2023-04-28T06:50:53;6.03;;;5.05;;
54167;SDS011;68429;50.958;3.592;2023-04-28T06:53:18;5.28;;;4.78;;
54167;SDS011;68429;50.958;3.592;2023-04-28T06:55:44;5.65;;;4.38;;
54167;SDS011;68429;50.958;3.592;2023-04-28T06:58:10;4.05;;;3.22;;
54167;SDS011;68429;50.958;3.592;2023-04-28T07:00:36;3.88;;;3.47;;
54167;SDS011;68429;50.958;3.592;2023-04-28T07:03:02;3.45;;;3.15;;
54167;SDS011;68429;50.958;3.592;2023-04-28T07:05:28;4.15;;;3.60;;
54167;SDS011;68429;50.958;3.592;2023-04-28T07:07:53;3.75;;;2.80;;
54167;SDS011;68429;50.958;3.592;2023-04-28T07:10:19;3.10;;;2.80;;
54167;SDS011;68429;50.958;3.592;2023-04-28T07:12:45;3.67;;;2.80;;
54167;SDS011;68429;50.958;3.592;2023-04-28T07:15:11;5.13;;;2.80;;
54167;SDS011;68429;50.958;3.592;2023-04-28T07:17:37;2.97;;;2.70;;
54167;SDS011;68429;50.958;3.592;2023-04-28T07:20:03;4.15;;;2.80;;
54167;SDS011;68429;50.958;3.592;2023-04-28T07:22:29;3.97;;;3.10;;
54167;SDS011;68429;50.958;3.592;2023-04-28T07:24:55;3.88;;;3.45;;
54167;SDS011;68429;50.958;3.592;2023-04-28T07:27:21;4.93;;;3.20;;
54167;SDS011;68429;50.958;3.592;2023-04-28T07:29:47;3.72;;;3.40;;
54167;SDS011;68429;50.958;3.592;2023-04-28T07:32:12;3.40;;;2.60;;
54167;SDS011;68429;50.958;3.592;2023-04-28T07:34:38;5.25;;;2.63;;
54167;SDS011;68429;50.958;3.592;2023-04-28T07:37:04;2.70;;;2.50;;
54167;SDS011;68429;50.958;3.592;2023-04-28T07:39:30;3.55;;;3.20;;
54167;SDS011;68429;50.958;3.592;2023-04-28T07:41:58;2.53;;;2.33;;
54167;SDS011;68429;50.958;3.592;2023-04-28T07:44:23;2.60;;;2.40;;
54167;SDS011;68429;50.958;3.592;2023-04-28T07:46:49;1.92;;;1.83;;
54167;SDS011;68429;50.958;3.592;2023-04-28T07:49:15;3.08;;;2.35;;
54167;SDS011;68429;50.958;3.592;2023-04-28T07:51:42;1.70;;;1.58;;
54167;SDS011;68429;50.958;3.592;2023-04-28T07:54:08;3.22;;;2.53;;
54167;SDS011;68429;50.958;3.592;2023-04-28T07:56:34;2.25;;;2.05;;
54167;SDS011;68429;50.958;3.592;2023-04-28T07:59:00;2.75;;;1.92;;
54167;SDS011;68429;50.958;3.592;2023-04-28T08:01:25;1.70;;;1.60;;
54167;SDS011;68429;50.958;3.592;2023-04-28T08:03:51;2.88;;;1.80;;
54167;SDS011;68429;50.958;3.592;2023-04-28T08:06:17;1.80;;;1.63;;
54167;SDS011;68429;50.958;3.592;2023-04-28T08:08:43;4.10;;;1.30;;
54167;SDS011;68429;50.958;3.592;2023-04-28T08:11:09;1.38;;;1.00;;
54167;SDS011;68429;50.958;3.592;2023-04-28T08:13:35;1.10;;;1.10;;
54167;SDS011;68429;50.958;3.592;2023-04-28T08:16:01;3.35;;;1.35;;
54167;SDS011;68429;50.958;3.592;2023-04-28T08:18:27;1.27;;;1.00;;
54167;SDS011;68429;50.958;3.592;2023-04-28T08:20:53;1.13;;;0.80;;
54167;SDS011;68429;50.958;3.592;2023-04-28T08:23:19;1.20;;;1.10;;
54167;SDS011;68429;50.958;3.592;2023-04-28T08:25:45;1.20;;;1.10;;
54167;SDS011;68429;50.958;3.592;2023-04-28T08:28:11;1.35;;;1.00;;
54167;SDS011;68429;50.958;3.592;2023-04-28T08:30:37;1.67;;;1.02;;
54167;SDS011;68429;50.958;3.592;2023-04-28T08:33:03;1.05;;;0.95;;
54167;SDS011;68429;50.958;3.592;2023-04-28T08:35:29;0.90;;;0.90;;
54167;SDS011;68429;50.958;3.592;2023-04-28T08:37:55;1.27;;;1.10;;
54167;SDS011;68429;50.958;3.592;2023-04-28T08:40:21;1.20;;;1.20;;
54167;SDS011;68429;50.958;3.592;2023-04-28T08:42:48;1.27;;;1.17;;
54167;SDS011;68429;50.958;3.592;2023-04-28T08:45:14;1.98;;;1.38;;
54167;SDS011;68429;50.958;3.592;2023-04-28T08:47:40;1.95;;;0.93;;
54167;SDS011;68429;50.958;3.592;2023-04-28T08:50:10;1.40;;;1.20;;
54167;SDS011;68429;50.958;3.592;2023-04-28T08:52:37;1.20;;;1.05;;
54167;SDS011;68429;50.958;3.592;2023-04-28T08:55:05;1.83;;;1.20;;
54167;SDS011;68429;50.958;3.592;2023-04-28T08:57:39;1.30;;;1.25;;
54167;SDS011;68429;50.958;3.592;2023-04-28T09:00:08;1.40;;;1.30;;
54167;SDS011;68429;50.958;3.592;2023-04-28T09:02:34;1.85;;;1.17;;
54167;SDS011;68429;50.958;3.592;2023-04-28T09:05:11;0.90;;;0.85;;
54167;SDS011;68429;50.958;3.592;2023-04-28T09:07:38;10.63;;;1.65;;
54167;SDS011;68429;50.958;3.592;2023-04-28T09:12:52;1.20;;;0.95;;
54167;SDS011;68429;50.958;3.592;2023-04-28T09:15:29;1.50;;;0.90;;
54167;SDS011;68429;50.958;3.592;2023-04-28T09:17:59;1.08;;;1.02;;
54167;SDS011;68429;50.958;3.592;2023-04-28T09:22:55;1.63;;;1.10;;
54167;SDS011;68429;50.958;3.592;2023-04-28T09:25:36;1.00;;;0.90;;
54167;SDS011;68429;50.958;3.592;2023-04-28T09:28:18;0.70;;;0.70;;
54167;SDS011;68429;50.958;3.592;2023-04-28T09:30:46;2.13;;;1.00;;
54167;SDS011;68429;50.958;3.592;2023-04-28T09:33:11;1.42;;;1.25;;
54167;SDS011;68429;50.958;3.592;2023-04-28T09:35:38;1.67;;;1.48;;
54167;SDS011;68429;50.958;3.592;2023-04-28T09:38:05;4.00;;;1.40;;
54167;SDS011;68429;50.958;3.592;2023-04-28T09:40:30;2.20;;;1.42;;
54167;SDS011;68429;50.958;3.592;2023-04-28T09:42:56;5.35;;;0.90;;
54167;SDS011;68429;50.958;3.592;2023-04-28T09:45:22;1.85;;;1.15;;
54167;SDS011;68429;50.958;3.592;2023-04-28T09:47:48;3.40;;;1.27;;
54167;SDS011;68429;50.958;3.592;2023-04-28T09:50:15;1.40;;;1.10;;
54167;SDS011;68429;50.958;3.592;2023-04-28T09:52:52;2.33;;;1.25;;
54167;SDS011;68429;50.958;3.592;2023-04-28T09:55:23;1.88;;;1.20;;
54167;SDS011;68429;50.958;3.592;2023-04-28T09:57:49;1.63;;;1.27;;
54167;SDS011;68429;50.958;3.592;2023-04-28T10:00:19;1.52;;;1.13;;
54167;SDS011;68429;50.958;3.592;2023-04-28T10:02:45;1.20;;;0.80;;
54167;SDS011;68429;50.958;3.592;2023-04-28T10:05:13;1.50;;;0.95;;
54167;SDS011;68429;50.958;3.592;2023-04-28T10:07:40;2.72;;;0.80;;
54167;SDS011;68429;50.958;3.592;2023-04-28T10:10:06;2.67;;;0.80;;
54167;SDS011;68429;50.958;3.592;2023-04-28T10:12:32;0.90;;;0.70;;
54167;SDS011;68429;50.958;3.592;2023-04-28T10:14:59;1.23;;;1.10;;
54167;SDS011;68429;50.958;3.592;2023-04-28T10:17:25;4.80;;;0.93;;
54167;SDS011;68429;50.958;3.592;2023-04-28T10:19:53;2.10;;;1.17;;
54167;SDS011;68429;50.958;3.592;2023-04-28T10:25:28;0.82;;;0.70;;
54167;SDS011;68429;50.958;3.592;2023-04-28T10:27:56;0.80;;;0.75;;
54167;SDS011;68429;50.958;3.592;2023-04-28T10:30:24;0.93;;;0.82;;
54167;SDS011;68429;50.958;3.592;2023-04-28T10:38:15;0.50;;;0.50;;
54167;SDS011;68429;50.958;3.592;2023-04-28T10:40:42;0.50;;;0.50;;
54167;SDS011;68429;50.958;3.592;2023-04-28T10:54:13;1.15;;;1.00;;
54167;SDS011;68429;50.958;3.592;2023-04-28T10:56:21;2.53;;;0.68;;
54167;SDS011;68429;50.958;3.592;2023-04-28T10:58:58;0.85;;;0.70;;
54167;SDS011;68429;50.958;3.592;2023-04-28T11:01:27;0.90;;;0.60;;
54167;SDS011;68429;50.958;3.592;2023-04-28T11:14:29;0.80;;;0.80;;
54167;SDS011;68429;50.958;3.592;2023-04-28T11:19:31;0.70;;;0.70;;
54167;SDS011;68429;50.958;3.592;2023-04-28T11:22:05;1.40;;;0.75;;
54167;SDS011;68429;50.958;3.592;2023-04-28T11:24:37;0.80;;;0.70;;
54167;SDS011;68429;50.958;3.592;2023-04-28T11:27:03;1.20;;;0.60;;
54167;SDS011;68429;50.958;3.592;2023-04-28T11:29:30;1.40;;;0.68;;
54167;SDS011;68429;50.958;3.592;2023-04-28T11:32:03;0.60;;;0.60;;
54167;SDS011;68429;50.958;3.592;2023-04-28T11:34:30;0.63;;;0.63;;
54167;SDS011;68429;50.958;3.592;2023-04-28T11:36:56;0.60;;;0.60;;
54167;SDS011;68429;50.958;3.592;2023-04-28T11:39:26;1.85;;;0.60;;
54167;SDS011;68429;50.958;3.592;2023-04-28T11:41:55;1.13;;;1.02;;
54167;SDS011;68429;50.958;3.592;2023-04-28T11:44:26;0.80;;;0.70;;
54167;SDS011;68429;50.958;3.592;2023-04-28T11:46:54;0.88;;;0.73;;
54167;SDS011;68429;50.958;3.592;2023-04-28T11:49:25;0.80;;;0.80;;
54167;SDS011;68429;50.958;3.592;2023-04-28T11:51:54;1.10;;;0.70;;
54167;SDS011;68429;50.958;3.592;2023-04-28T11:54:27;0.52;;;0.38;;
54167;SDS011;68429;50.958;3.592;2023-04-28T11:56:53;1.00;;;0.75;;
54167;SDS011;68429;50.958;3.592;2023-04-28T11:59:30;0.60;;;0.60;;
54167;SDS011;68429;50.958;3.592;2023-04-28T12:01:59;0.75;;;0.60;;
54167;SDS011;68429;50.958;3.592;2023-04-28T12:09:29;1.50;;;0.90;;
54167;SDS011;68429;50.958;3.592;2023-04-28T12:11:56;1.25;;;0.73;;
54167;SDS011;68429;50.958;3.592;2023-04-28T12:14:24;0.40;;;0.40;;
54167;SDS011;68429;50.958;3.592;2023-04-28T12:16:50;5.05;;;0.70;;
54167;SDS011;68429;50.958;3.592;2023-04-28T12:19:16;4.25;;;0.70;;
54167;SDS011;68429;50.958;3.592;2023-04-28T12:21:56;0.57;;;0.57;;
54167;SDS011;68429;50.958;3.592;2023-04-28T12:24:23;0.70;;;0.60;;
54167;SDS011;68429;50.958;3.592;2023-04-28T12:26:50;0.70;;;0.70;;
54167;SDS011;68429;50.958;3.592;2023-04-28T12:32:08;1.80;;;1.10;;
54167;SDS011;68429;50.958;3.592;2023-04-28T12:34:35;2.35;;;1.00;;
54167;SDS011;68429;50.958;3.592;2023-04-28T12:37:02;0.73;;;0.73;;
54167;SDS011;68429;50.958;3.592;2023-04-28T12:39:29;26.73;;;3.20;;
54167;SDS011;68429;50.958;3.592;2023-04-28T12:41:58;2.28;;;1.20;;
54167;SDS011;68429;50.958;3.592;2023-04-28T12:44:27;1.10;;;1.00;;
54167;SDS011;68429;50.958;3.592;2023-04-28T12:47:00;1.92;;;1.40;;
54167;SDS011;68429;50.958;3.592;2023-04-28T12:49:26;1.00;;;1.00;;
54167;SDS011;68429;50.958;3.592;2023-04-28T12:51:52;1.60;;;0.95;;
54167;SDS011;68429;50.958;3.592;2023-04-28T12:54:18;2.50;;;1.02;;
54167;SDS011;68429;50.958;3.592;2023-04-28T12:56:44;1.92;;;1.00;;
54167;SDS011;68429;50.958;3.592;2023-04-28T12:59:09;1.92;;;1.15;;
54167;SDS011;68429;50.958;3.592;2023-04-28T13:01:35;1.73;;;1.30;;
54167;SDS011;68429;50.958;3.592;2023-04-28T13:04:01;1.55;;;1.30;;
54167;SDS011;68429;50.958;3.592;2023-04-28T13:06:27;1.90;;;1.65;;
54167;SDS011;68429;50.958;3.592;2023-04-28T13:08:53;1.80;;;1.48;;
54167;SDS011;68429;50.958;3.592;2023-04-28T13:11:19;3.25;;;1.50;;
54167;SDS011;68429;50.958;3.592;2023-04-28T13:13:45;2.47;;;1.35;;
54167;SDS011;68429;50.958;3.592;2023-04-28T13:16:11;2.80;;;1.40;;
54167;SDS011;68429;50.958;3.592;2023-04-28T13:18:38;2.65;;;1.60;;
54167;SDS011;68429;50.958;3.592;2023-04-28T13:21:04;2.58;;;2.10;;
54167;SDS011;68429;50.958;3.592;2023-04-28T13:23:29;2.58;;;2.38;;
54167;SDS011;68429;50.958;3.592;2023-04-28T13:25:55;1.80;;;1.70;;
54167;SDS011;68429;50.958;3.592;2023-04-28T13:28:21;2.78;;;1.60;;
54167;SDS011;68429;50.958;3.592;2023-04-28T13:30:47;2.05;;;1.88;;
54167;SDS011;68429;50.958;3.592;2023-04-28T13:33:12;2.05;;;1.90;;
54167;SDS011;68429;50.958;3.592;2023-04-28T13:35:38;3.47;;;3.17;;
54167;SDS011;68429;50.958;3.592;2023-04-28T13:38:04;3.28;;;2.03;;
54167;SDS011;68429;50.958;3.592;2023-04-28T13:40:30;2.90;;;1.90;;
54167;SDS011;68429;50.958;3.592;2023-04-28T13:42:57;7.28;;;1.73;;
54167;SDS011;68429;50.958;3.592;2023-04-28T13:45:23;2.67;;;1.50;;
54167;SDS011;68429;50.958;3.592;2023-04-28T13:47:50;1.50;;;1.40;;
54167;SDS011;68429;50.958;3.592;2023-04-28T13:50:16;1.30;;;1.20;;
54167;SDS011;68429;50.958;3.592;2023-04-28T13:52:41;2.20;;;1.10;;
54167;SDS011;68429;50.958;3.592;2023-04-28T13:55:07;1.30;;;1.20;;
54167;SDS011;68429;50.958;3.592;2023-04-28T13:57:33;1.65;;;1.38;;
54167;SDS011;68429;50.958;3.592;2023-04-28T13:59:59;1.63;;;1.52;;
54167;SDS011;68429;50.958;3.592;2023-04-28T14:02:25;2.85;;;1.90;;
54167;SDS011;68429;50.958;3.592;2023-04-28T14:04:51;2.38;;;1.70;;
54167;SDS011;68429;50.958;3.592;2023-04-28T14:07:17;1.40;;;1.30;;
54167;SDS011;68429;50.958;3.592;2023-04-28T14:09:43;3.00;;;1.48;;
54167;SDS011;68429;50.958;3.592;2023-04-28T14:12:09;1.75;;;1.23;;
54167;SDS011;68429;50.958;3.592;2023-04-28T14:14:35;1.30;;;1.20;;
54167;SDS011;68429;50.958;3.592;2023-04-28T14:17:01;1.05;;;0.88;;
54167;SDS011;68429;50.958;3.592;2023-04-28T14:19:27;0.98;;;0.82;;
54167;SDS011;68429;50.958;3.592;2023-04-28T14:21:53;2.53;;;1.30;;
54167;SDS011;68429;50.958;3.592;2023-04-28T14:24:19;1.48;;;0.90;;
54167;SDS011;68429;50.958;3.592;2023-04-28T14:26:45;1.33;;;1.23;;
54167;SDS011;68429;50.958;3.592;2023-04-28T14:29:11;2.33;;;1.50;;
54167;SDS011;68429;50.958;3.592;2023-04-28T14:31:37;2.28;;;1.10;;
54167;SDS011;68429;50.958;3.592;2023-04-28T14:34:03;1.02;;;0.98;;
54167;SDS011;68429;50.958;3.592;2023-04-28T14:36:29;1.10;;;1.00;;
54167;SDS011;68429;50.958;3.592;2023-04-28T14:38:57;1.70;;;1.42;;
54167;SDS011;68429;50.958;3.592;2023-04-28T14:41:23;1.77;;;0.90;;
54167;SDS011;68429;50.958;3.592;2023-04-28T14:43:49;2.15;;;0.88;;
54167;SDS011;68429;50.958;3.592;2023-04-28T14:46:15;0.90;;;0.70;;
54167;SDS011;68429;50.958;3.592;2023-04-28T14:48:47;2.38;;;0.85;;
54167;SDS011;68429;50.958;3.592;2023-04-28T14:51:14;1.42;;;0.80;;
54167;SDS011;68429;50.958;3.592;2023-04-28T14:53:39;1.77;;;0.80;;
54167;SDS011;68429;50.958;3.592;2023-04-28T14:56:06;0.88;;;0.88;;
54167;SDS011;68429;50.958;3.592;2023-04-28T14:58:33;1.20;;;1.00;;
54167;SDS011;68429;50.958;3.592;2023-04-28T15:00:59;2.28;;;1.00;;
54167;SDS011;68429;50.958;3.592;2023-04-28T15:03:25;0.80;;;0.70;;
54167;SDS011;68429;50.958;3.592;2023-04-28T15:05:51;2.22;;;1.17;;
54167;SDS011;68429;50.958;3.592;2023-04-28T15:08:17;1.15;;;1.02;;
54167;SDS011;68429;50.958;3.592;2023-04-28T15:10:43;1.63;;;0.98;;
54167;SDS011;68429;50.958;3.592;2023-04-28T15:13:09;1.77;;;0.90;;
54167;SDS011;68429;50.958;3.592;2023-04-28T15:15:35;1.95;;;1.08;;
54167;SDS011;68429;50.958;3.592;2023-04-28T15:18:01;3.17;;;1.25;;
54167;SDS011;68429;50.958;3.592;2023-04-28T15:20:31;1.73;;;1.10;;